Time;durP1;ratioP1;P1;durP2;ratioP2;P2;SDS_P1;SDS_P2;PMS_P1;PMS_P2;Temp;Humidity;BMP_temperature;BMP_pressure;BME280_temperature;BME280_humidity;BME280_pressure;Samples;Min_cycle;Max_cycle;Signal;HPM_P1;HPM_P2
2022/04/10 00:00:50;;;;;;;0.70;0.50;;;9.20;99.90;;;;;;5033059;28;20212;-92
2022/04/10 00:03:32;;;;;;;0.50;0.47;;;9.10;99.90;;;;;;5035379;28;20217;-92
2022/04/10 00:06:09;;;;;;;0.80;0.50;;;8.70;99.90;;;;;;5021247;28;20201;-90
2022/04/10 00:08:42;;;;;;;1.37;0.73;;;8.70;99.90;;;;;;5037363;28;20220;-91
2022/04/10 00:11:15;;;;;;;1.00;0.50;;;9.00;99.90;;;;;;5037471;28;20240;-91
2022/04/10 00:14:00;;;;;;;2.00;0.60;;;8.70;99.90;;;;;;5034614;28;20269;-90
2022/04/10 00:16:36;;;;;;;0.53;0.50;;;8.80;99.90;;;;;;5033750;28;20209;-91
2022/04/10 00:19:10;;;;;;;0.70;0.70;;;8.30;99.90;;;;;;5033282;28;20225;-90
2022/04/10 00:21:50;;;;;;;1.33;0.70;;;8.00;99.90;;;;;;5036861;28;20193;-92
2022/04/10 00:24:25;;;;;;;1.30;0.60;;;8.20;99.90;;;;;;5039206;28;20225;-91
2022/04/10 00:26:57;;;;;;;1.63;0.70;;;8.40;99.90;;;;;;5039040;28;20204;-93
2022/04/10 00:29:46;;;;;;;1.10;0.70;;;8.20;99.90;;;;;;5018839;28;20227;-92
2022/04/10 00:32:29;;;;;;;1.43;0.63;;;7.90;99.90;;;;;;5037585;28;20292;-91
2022/04/10 00:35:11;;;;;;;1.33;0.63;;;8.00;99.90;;;;;;5039068;28;20216;-90
2022/04/10 00:40:54;;;;;;;1.43;0.80;;;7.80;99.90;;;;;;5036330;28;20209;-91
2022/04/10 00:43:32;;;;;;;1.97;0.80;;;7.70;99.90;;;;;;5037195;28;20229;-91
2022/04/10 00:46:09;;;;;;;1.50;0.77;;;7.50;99.90;;;;;;5032212;28;20221;-91
2022/04/10 00:48:41;;;;;;;1.07;0.80;;;7.50;99.90;;;;;;5033625;28;20236;-92
2022/04/10 00:54:17;;;;;;;1.87;0.80;;;7.20;99.90;;;;;;5038020;28;20236;-90
2022/04/10 00:56:50;;;;;;;1.70;0.60;;;7.30;99.90;;;;;;5038760;28;20220;-91
2022/04/10 00:59:22;;;;;;;1.50;0.60;;;7.40;99.90;;;;;;5036784;28;20210;-92
2022/04/10 01:02:13;;;;;;;1.40;0.60;;;7.50;99.90;;;;;;5033315;28;20202;-92
2022/04/10 01:04:58;;;;;;;1.33;0.70;;;7.60;99.90;;;;;;5012140;28;20209;-90
2022/04/10 01:07:37;;;;;;;1.60;0.57;;;7.60;99.90;;;;;;5031442;28;20214;-91
2022/04/10 01:10:10;;;;;;;1.73;0.50;;;7.60;99.90;;;;;;5026427;28;20204;-91
2022/04/10 01:12:42;;;;;;;1.37;0.40;;;7.50;99.90;;;;;;5010123;28;20619;-91
2022/04/10 01:15:27;;;;;;;1.97;0.70;;;7.30;99.90;;;;;;5028016;28;20311;-91
2022/04/10 01:17:59;;;;;;;1.77;0.60;;;7.00;99.90;;;;;;5035114;28;20201;-92
2022/04/10 01:20:33;;;;;;;2.47;1.00;;;6.90;99.90;;;;;;5031060;28;20212;-91
2022/04/10 01:23:09;;;;;;;2.40;0.80;;;6.80;99.90;;;;;;5016861;28;20244;-91
2022/04/10 01:25:45;;;;;;;1.33;0.63;;;6.70;99.90;;;;;;5027723;28;20221;-90
2022/04/10 01:28:33;;;;;;;1.73;0.60;;;6.60;99.90;;;;;;5029614;28;20207;-90
2022/04/10 01:31:07;;;;;;;1.53;0.60;;;6.50;99.90;;;;;;5031206;28;20220;-91
2022/04/10 01:36:39;;;;;;;1.93;0.90;;;6.40;99.90;;;;;;5030309;28;20237;-90
2022/04/10 01:39:29;;;;;;;3.83;0.80;;;6.50;99.90;;;;;;5030694;28;20215;-90
2022/04/10 01:44:50;;;;;;;1.90;0.53;;;6.60;99.90;;;;;;5031145;28;20205;-89
2022/04/10 01:50:22;;;;;;;3.40;1.20;;;6.60;99.90;;;;;;5029966;28;20216;-90
2022/04/10 01:53:06;;;;;;;1.57;0.90;;;6.50;99.90;;;;;;5030954;28;20209;-90
2022/04/10 01:55:43;;;;;;;2.67;0.90;;;6.60;99.90;;;;;;5030891;28;20242;-89
2022/04/10 01:58:14;;;;;;;1.97;0.80;;;6.60;99.90;;;;;;5009052;28;20216;-90
2022/04/10 02:00:47;;;;;;;0.80;0.80;;;6.60;99.90;;;;;;4995349;28;20206;-91
2022/04/10 02:03:36;;;;;;;5.13;1.00;;;6.50;99.90;;;;;;5011104;28;20206;-91
2022/04/10 02:06:25;;;;;;;2.73;0.90;;;6.50;99.90;;;;;;5013665;28;20222;-90
2022/04/10 02:08:58;;;;;;;1.27;0.90;;;6.50;99.90;;;;;;5013435;28;20216;-91
2022/04/10 02:11:45;;;;;;;1.63;0.93;;;6.50;99.90;;;;;;5014374;28;20210;-91
2022/04/10 02:14:20;;;;;;;2.07;0.90;;;6.40;99.90;;;;;;4679731;28;10000310;-91
2022/04/10 02:17:03;;;;;;;4.67;1.00;;;6.30;99.90;;;;;;5028107;28;20232;-91
2022/04/10 02:19:47;;;;;;;1.00;0.73;;;6.30;99.90;;;;;;5026349;28;20670;-92
2022/04/10 02:25:30;;;;;;;1.20;0.70;;;6.20;99.90;;;;;;5025505;28;20268;-90
2022/04/10 02:28:10;;;;;;;1.53;0.80;;;6.20;99.90;;;;;;5006903;28;20635;-90
2022/04/10 02:30:41;;;;;;;1.03;0.60;;;6.10;99.90;;;;;;5029340;28;20213;-91
2022/04/10 02:33:22;;;;;;;1.50;0.90;;;6.10;99.90;;;;;;5030952;28;20262;-91
2022/04/10 02:36:11;;;;;;;1.13;0.90;;;6.00;99.90;;;;;;5031590;28;20225;-91
2022/04/10 02:41:28;;;;;;;1.93;0.73;;;5.70;99.90;;;;;;5084286;23;20243;-92
2022/04/10 02:46:57;;;;;;;3.73;0.97;;;5.60;99.90;;;;;;5051470;28;20208;-91
2022/04/10 02:49:31;;;;;;;1.60;1.03;;;5.60;99.90;;;;;;5050840;28;20212;-89
2022/04/10 02:52:16;;;;;;;3.67;1.00;;;5.50;99.90;;;;;;5054393;28;20205;-88
2022/04/10 03:10:53;;;;;;;1.80;0.73;;;5.10;99.90;;;;;;5055465;28;20242;-90
2022/04/10 03:13:26;;;;;;;3.43;1.27;;;5.10;99.90;;;;;;5056066;28;20189;-90
2022/04/10 03:16:06;;;;;;;2.77;0.77;;;5.10;99.90;;;;;;5051105;28;20232;-90
2022/04/10 03:18:44;;;;;;;2.23;1.00;;;5.10;99.90;;;;;;5054125;28;20223;-90
2022/04/10 03:24:28;;;;;;;1.17;0.83;;;5.10;99.90;;;;;;5087416;22;20235;-90
2022/04/10 03:27:03;;;;;;;0.73;0.70;;;5.10;99.90;;;;;;5072705;28;20208;-93
2022/04/10 03:29:34;;;;;;;2.87;0.93;;;4.80;99.90;;;;;;5065512;28;20300;-91
2022/04/10 03:32:06;;;;;;;3.60;0.90;;;4.70;99.90;;;;;;5066326;28;20208;-91
2022/04/10 03:34:37;;;;;;;2.80;0.90;;;4.80;99.90;;;;;;5062408;28;20699;-91
2022/04/10 03:37:09;;;;;;;0.73;0.70;;;4.80;99.90;;;;;;5070189;28;20236;-91
2022/04/10 03:39:52;;;;;;;2.63;1.53;;;4.90;99.90;;;;;;5072610;28;20231;-90
2022/04/10 03:42:38;;;;;;;2.20;1.10;;;5.00;99.90;;;;;;5065714;28;20231;-91
2022/04/10 03:47:56;;;;;;;4.40;1.63;;;5.00;99.90;;;;;;5071172;28;20653;-92
2022/04/10 03:50:29;;;;;;;8.13;1.70;;;5.00;99.90;;;;;;5070791;28;20212;-91
2022/04/10 03:53:02;;;;;;;3.30;1.60;;;5.00;99.90;;;;;;5069365;28;20645;-91
2022/04/10 03:55:34;;;;;;;3.80;1.63;;;5.10;99.90;;;;;;5063081;28;20254;-90
2022/04/10 03:58:23;;;;;;;2.23;1.40;;;5.20;99.90;;;;;;5068699;28;20192;-91
2022/04/10 04:01:00;;;;;;;3.83;1.10;;;5.10;99.90;;;;;;5070838;28;20230;-91
2022/04/10 04:06:39;;;;;;;5.20;1.17;;;5.10;99.90;;;;;;5073459;28;20227;-89
2022/04/10 04:09:24;;;;;;;5.33;1.10;;;5.20;99.90;;;;;;5071553;28;20190;-91
2022/04/10 04:12:05;;;;;;;2.37;0.90;;;5.30;99.90;;;;;;5073405;28;20204;-91
2022/04/10 04:14:52;;;;;;;3.43;1.20;;;5.40;99.90;;;;;;5072076;28;20216;-91
2022/04/10 04:17:30;;;;;;;2.80;1.23;;;5.40;99.90;;;;;;5071885;28;20248;-93
2022/04/10 04:20:19;;;;;;;2.97;1.00;;;5.40;99.90;;;;;;5073352;28;20230;-93
2022/04/10 04:23:06;;;;;;;5.17;1.00;;;5.40;99.90;;;;;;5071255;28;20208;-93
2022/04/10 04:25:48;;;;;;;2.47;0.87;;;5.40;99.90;;;;;;5071008;28;20203;-91
2022/04/10 04:28:36;;;;;;;3.43;1.20;;;5.40;99.90;;;;;;5065550;28;20238;-91
2022/04/10 04:31:11;;;;;;;4.57;0.93;;;5.40;99.90;;;;;;5053527;28;20242;-91
2022/04/10 04:33:56;;;;;;;3.33;1.17;;;5.50;99.90;;;;;;5066517;28;20204;-91
2022/04/10 04:36:30;;;;;;;4.70;1.20;;;5.50;99.90;;;;;;5068801;28;20244;-91
2022/04/10 04:42:07;;;;;;;9.70;3.67;;;5.50;99.90;;;;;;5068042;28;20216;-93
2022/04/10 04:44:39;;;;;;;3.67;1.23;;;5.40;99.90;;;;;;5049469;28;20209;-93
2022/04/10 04:47:15;;;;;;;3.10;0.90;;;5.30;99.90;;;;;;5039007;28;20209;-92
2022/04/10 04:49:47;;;;;;;1.63;1.33;;;5.30;99.90;;;;;;5040136;28;20228;-92
2022/04/10 04:52:25;;;;;;;4.73;1.77;;;5.20;99.90;;;;;;5041371;28;20263;-92
2022/04/10 04:54:57;;;;;;;6.33;1.00;;;5.00;99.90;;;;;;5043983;28;20213;-92
2022/04/10 04:57:29;;;;;;;4.10;1.20;;;5.00;99.90;;;;;;5039055;28;20331;-92
2022/04/10 05:00:02;;;;;;;9.23;1.10;;;4.90;99.90;;;;;;5042557;28;20260;-91
2022/04/10 05:02:35;;;;;;;2.40;1.17;;;4.90;99.90;;;;;;5048508;28;20250;-93
2022/04/10 05:05:08;;;;;;;4.33;1.10;;;4.90;99.90;;;;;;5058583;28;20273;-94
2022/04/10 05:07:40;;;;;;;3.33;0.90;;;4.90;99.90;;;;;;5071080;28;20200;-91
2022/04/10 05:10:13;;;;;;;3.67;1.63;;;4.90;99.90;;;;;;5073226;28;20215;-93
2022/04/10 05:12:44;;;;;;;4.13;0.97;;;4.90;99.90;;;;;;5067386;28;20262;-91
2022/04/10 05:15:16;;;;;;;2.97;1.10;;;4.60;99.90;;;;;;5062487;28;20200;-93
2022/04/10 05:17:51;;;;;;;5.10;1.23;;;4.50;99.90;;;;;;5059888;28;20295;-92
2022/04/10 05:20:22;;;;;;;4.00;1.27;;;4.30;99.90;;;;;;5059656;28;20358;-92
2022/04/10 05:22:56;;;;;;;3.13;1.27;;;4.10;99.90;;;;;;5059946;28;20231;-93
2022/04/10 05:25:28;;;;;;;4.60;1.17;;;3.90;99.90;;;;;;5060995;28;20220;-92
2022/04/10 05:27:59;;;;;;;3.30;2.13;;;3.70;99.90;;;;;;5059505;28;20545;-91
2022/04/10 05:30:32;;;;;;;2.53;1.00;;;3.60;99.90;;;;;;5060670;28;20242;-92
2022/04/10 05:33:07;;;;;;;4.37;1.40;;;3.50;99.90;;;;;;5060310;28;20211;-93
2022/04/10 05:35:39;;;;;;;4.60;1.30;;;3.50;99.90;;;;;;5060564;28;20224;-93
2022/04/10 05:38:10;;;;;;;6.40;3.27;;;3.40;99.90;;;;;;5060398;28;20243;-93
2022/04/10 05:40:42;;;;;;;3.57;1.00;;;3.40;99.90;;;;;;5062528;28;20212;-90
2022/04/10 05:43:14;;;;;;;4.57;1.20;;;3.50;99.90;;;;;;5056141;28;20201;-92
2022/04/10 05:45:47;;;;;;;6.60;2.80;;;3.50;99.90;;;;;;5054316;28;20558;-92
2022/04/10 05:48:22;;;;;;;4.83;1.07;;;3.50;99.90;;;;;;5054061;28;20203;-90
2022/04/10 05:50:54;;;;;;;1.83;1.10;;;3.40;99.90;;;;;;5048335;28;20263;-92
2022/04/10 05:53:27;;;;;;;3.23;1.20;;;3.50;99.90;;;;;;5062288;28;20730;-92
2022/04/10 05:55:58;;;;;;;2.57;1.00;;;3.40;99.90;;;;;;5062875;28;20220;-92
2022/04/10 05:58:32;;;;;;;2.93;0.97;;;3.50;99.90;;;;;;5059896;28;20242;-91
2022/04/10 06:01:05;;;;;;;2.03;1.17;;;3.50;99.90;;;;;;5069332;28;20219;-90
2022/04/10 06:03:43;;;;;;;3.87;1.03;;;3.60;99.90;;;;;;5071966;28;20267;-91
2022/04/10 06:06:15;;;;;;;5.77;1.23;;;3.50;99.90;;;;;;5066132;28;20271;-92
2022/04/10 06:08:52;;;;;;;5.07;1.20;;;3.50;99.90;;;;;;5066124;28;20232;-90
2022/04/10 06:11:24;;;;;;;2.93;1.23;;;3.50;99.90;;;;;;5058947;28;20244;-90
2022/04/10 06:14:05;;;;;;;3.43;0.90;;;3.60;99.90;;;;;;5049171;28;20272;-90
2022/04/10 06:16:38;;;;;;;2.87;1.00;;;3.60;99.90;;;;;;5043362;28;20269;-91
2022/04/10 06:19:13;;;;;;;2.40;1.80;;;3.70;99.90;;;;;;5049473;28;20217;-90
2022/04/10 06:21:44;;;;;;;3.77;0.83;;;3.60;99.90;;;;;;5050601;28;20578;-90
2022/04/10 06:24:17;;;;;;;2.70;0.80;;;3.60;99.90;;;;;;5051873;28;20216;-91
2022/04/10 06:26:50;;;;;;;1.37;0.60;;;3.60;99.90;;;;;;5049201;28;20220;-92
2022/04/10 06:32:11;;;;;;;1.87;0.93;;;3.60;99.90;;;;;;5049947;28;20201;-90
2022/04/10 06:34:45;;;;;;;1.77;1.10;;;3.60;99.90;;;;;;5048933;28;20212;-90
2022/04/10 06:37:16;;;;;;;1.80;0.87;;;3.60;99.90;;;;;;5047468;28;20236;-91
2022/04/10 06:39:49;;;;;;;2.40;0.70;;;3.50;99.90;;;;;;5050276;28;20224;-90
2022/04/10 06:42:23;;;;;;;1.00;0.70;;;3.50;99.90;;;;;;5049772;28;20240;-91
2022/04/10 06:44:54;;;;;;;0.80;0.70;;;3.40;99.90;;;;;;5068852;28;20233;-91
2022/04/10 06:47:39;;;;;;;1.77;0.77;;;3.50;99.90;;;;;;5066964;28;20630;-91
2022/04/10 06:50:13;;;;;;;0.97;0.53;;;3.30;99.90;;;;;;5068719;28;20219;-91
2022/04/10 06:52:49;;;;;;;1.00;0.60;;;3.40;99.90;;;;;;5066770;28;20196;-90
2022/04/10 06:55:20;;;;;;;3.13;0.80;;;3.40;99.90;;;;;;5069586;28;20208;-91
2022/04/10 06:57:53;;;;;;;2.87;0.77;;;3.30;99.90;;;;;;5198352;22;20232;-90
2022/04/10 07:00:27;;;;;;;0.93;0.50;;;3.30;99.90;;;;;;5036818;28;20301;-95
2022/04/10 07:03:01;;;;;;;0.70;0.57;;;3.20;99.90;;;;;;5043390;28;20266;-91
2022/04/10 07:05:34;;;;;;;2.33;0.90;;;3.10;99.90;;;;;;5047850;28;20197;-91
2022/04/10 07:08:06;;;;;;;3.70;0.70;;;3.00;99.90;;;;;;5041079;28;20297;-91
2022/04/10 07:10:38;;;;;;;1.40;0.70;;;3.00;99.90;;;;;;5046095;28;20237;-91
2022/04/10 07:13:09;;;;;;;1.03;0.60;;;3.00;99.90;;;;;;5059483;28;20216;-90
2022/04/10 07:15:41;;;;;;;0.70;0.50;;;3.10;99.90;;;;;;5059917;28;20219;-89
2022/04/10 07:18:15;;;;;;;1.57;0.60;;;3.10;99.90;;;;;;5058728;28;20259;-90
2022/04/10 07:20:54;;;;;;;0.70;0.60;;;3.10;99.90;;;;;;5057661;28;20220;-90
2022/04/10 07:23:45;;;;;;;3.27;0.60;;;3.10;99.90;;;;;;5057796;28;20228;-89
2022/04/10 07:29:14;;;;;;;4.73;0.60;;;3.00;99.90;;;;;;5054958;28;20212;-91
2022/04/10 07:31:47;;;;;;;1.30;0.60;;;3.10;99.90;;;;;;5023367;28;20201;-90
2022/04/10 07:34:29;;;;;;;0.93;0.50;;;3.10;99.90;;;;;;5054264;28;20213;-90
2022/04/10 07:37:08;;;;;;;1.10;0.50;;;2.90;99.90;;;;;;5040771;28;20223;-91
2022/04/10 07:39:48;;;;;;;0.50;0.50;;;2.90;99.90;;;;;;5039951;28;20209;-91
2022/04/10 07:42:37;;;;;;;0.33;0.33;;;2.90;99.90;;;;;;5052856;28;20209;-91
2022/04/10 07:47:25;;;;;;;0.87;0.73;;;2.90;99.90;;;;;;5034196;28;20238;-93
2022/04/10 07:48:12;;;;;;;1.03;0.50;;;2.80;99.90;;;;;;5051602;28;20205;-90
2022/04/10 07:50:44;;;;;;;2.00;0.77;;;2.90;99.90;;;;;;5034425;28;20201;-91
2022/04/10 07:53:17;;;;;;;1.47;0.50;;;2.90;99.90;;;;;;5029992;28;20233;-93
2022/04/10 07:55:49;;;;;;;0.53;0.53;;;2.80;99.90;;;;;;5041159;28;20235;-91
2022/04/10 07:58:22;;;;;;;0.57;0.57;;;2.90;99.90;;;;;;5041198;28;20236;-92
2022/04/10 08:00:54;;;;;;;2.73;1.20;;;2.90;99.90;;;;;;5040393;28;20204;-91
2022/04/10 08:03:30;;;;;;;1.77;0.70;;;2.90;99.90;;;;;;5040125;28;20216;-91
2022/04/10 08:06:02;;;;;;;0.70;0.60;;;2.90;99.90;;;;;;5041441;28;20215;-91
2022/04/10 08:08:36;;;;;;;1.60;0.80;;;2.90;99.90;;;;;;5038991;28;20212;-91
2022/04/10 08:11:09;;;;;;;5.60;0.77;;;3.00;99.90;;;;;;5040171;28;20565;-92
2022/04/10 08:13:40;;;;;;;0.97;0.73;;;3.00;99.90;;;;;;5040164;28;20189;-90
2022/04/10 08:16:14;;;;;;;3.03;1.00;;;3.10;99.90;;;;;;5042539;28;20220;-91
2022/04/10 08:18:45;;;;;;;1.50;0.90;;;3.10;99.90;;;;;;5057731;28;20244;-91
2022/04/10 08:21:16;;;;;;;2.13;0.80;;;3.20;99.90;;;;;;5056806;28;20216;-92
2022/04/10 08:23:50;;;;;;;4.20;1.07;;;3.20;99.90;;;;;;5055363;28;20267;-90
2022/04/10 08:26:21;;;;;;;4.53;1.03;;;3.20;99.90;;;;;;5052107;28;20244;-92
2022/04/10 08:28:52;;;;;;;6.10;1.53;;;3.20;99.90;;;;;;5044789;28;20224;-91
2022/04/10 08:31:24;;;;;;;6.77;1.00;;;3.10;99.90;;;;;;5039860;28;20252;-92
2022/04/10 08:33:55;;;;;;;2.20;0.97;;;3.20;99.90;;;;;;5040579;28;20205;-93
2022/04/10 08:36:28;;;;;;;2.47;0.87;;;3.20;99.90;;;;;;5046740;28;20221;-91
2022/04/10 08:39:01;;;;;;;3.53;1.03;;;3.20;99.90;;;;;;5055515;28;20189;-91
2022/04/10 08:41:35;;;;;;;3.07;1.00;;;3.30;99.90;;;;;;5058278;28;20261;-90
2022/04/10 08:44:19;;;;;;;4.80;1.00;;;3.20;99.90;;;;;;5056966;28;20196;-91
2022/04/10 08:46:52;;;;;;;4.10;1.00;;;3.30;99.90;;;;;;5058171;28;20201;-91
2022/04/10 08:49:26;;;;;;;2.20;0.80;;;3.40;99.90;;;;;;5038972;28;20287;-90
2022/04/10 08:51:57;;;;;;;5.43;1.80;;;3.40;99.90;;;;;;5058080;28;20290;-91
2022/04/10 08:54:31;;;;;;;3.20;1.30;;;3.30;99.90;;;;;;5057580;28;20189;-92
2022/04/10 08:57:03;;;;;;;6.87;1.10;;;3.30;99.90;;;;;;5055195;28;20599;-93
2022/04/10 08:59:35;;;;;;;3.37;1.30;;;3.30;99.90;;;;;;5055087;28;20224;-91
2022/04/10 09:02:06;;;;;;;4.97;1.10;;;3.30;99.90;;;;;;5053372;28;20212;-91
2022/04/10 09:04:39;;;;;;;2.70;1.00;;;3.30;99.90;;;;;;5055372;28;20239;-90
2022/04/10 09:07:11;;;;;;;5.50;0.90;;;3.30;99.90;;;;;;5053469;28;20239;-91
2022/04/10 09:09:56;;;;;;;6.70;1.20;;;3.30;99.90;;;;;;5054463;28;20238;-91
2022/04/10 09:12:27;;;;;;;5.93;1.83;;;3.30;99.90;;;;;;5054020;28;20205;-90
2022/04/10 09:15:06;;;;;;;7.00;1.60;;;3.30;99.90;;;;;;5055362;28;20220;-90
2022/04/10 09:17:39;;;;;;;8.27;1.30;;;3.30;99.90;;;;;;5282771;23;20230;-92
2022/04/10 09:20:16;;;;;;;4.27;1.20;;;3.30;99.90;;;;;;5062398;28;20239;-92
2022/04/10 09:22:49;;;;;;;5.53;3.00;;;3.20;99.90;;;;;;5052616;28;20208;-91
2022/04/10 09:25:24;;;;;;;4.17;1.10;;;3.20;99.90;;;;;;5049297;28;20221;-92
2022/04/10 09:28:05;;;;;;;5.03;1.80;;;3.20;99.90;;;;;;5048632;28;20208;-91
2022/04/10 09:30:37;;;;;;;7.87;1.23;;;3.20;99.90;;;;;;5049375;28;20243;-92
2022/04/10 09:33:09;;;;;;;8.33;1.47;;;3.20;99.90;;;;;;5051051;28;20211;-90
2022/04/10 09:35:45;;;;;;;6.40;1.50;;;3.20;99.90;;;;;;5045887;28;20220;-92
2022/04/10 09:38:31;;;;;;;6.83;1.37;;;3.30;99.90;;;;;;5042020;28;20613;-92
2022/04/10 09:41:15;;;;;;;4.47;1.40;;;3.30;99.90;;;;;;5039566;28;20237;-92
2022/04/10 09:43:46;;;;;;;5.43;1.17;;;3.20;99.90;;;;;;5059696;28;20212;-91
2022/04/10 09:46:17;;;;;;;4.07;1.10;;;3.20;99.90;;;;;;5039791;28;20244;-90
2022/04/10 09:48:49;;;;;;;2.97;0.93;;;3.10;99.90;;;;;;5039448;28;20223;-92
2022/04/10 09:51:20;;;;;;;7.23;1.20;;;3.20;99.90;;;;;;5041253;28;20208;-90
2022/04/10 09:54:07;;;;;;;4.93;3.87;;;3.20;99.90;;;;;;5039956;28;20271;-91
2022/04/10 09:56:44;;;;;;;4.27;1.23;;;3.10;99.90;;;;;;5042768;28;20220;-91
2022/04/10 09:59:16;;;;;;;6.30;1.53;;;3.00;99.90;;;;;;5040369;28;20209;-91
2022/04/10 10:01:48;;;;;;;4.03;1.40;;;3.10;99.90;;;;;;5041412;28;20207;-91
2022/04/10 10:04:19;;;;;;;5.33;1.27;;;3.00;99.90;;;;;;5038982;28;20633;-91
2022/04/10 10:06:53;;;;;;;4.30;1.07;;;3.00;99.90;;;;;;5039965;28;20213;-91
2022/04/10 10:09:25;;;;;;;4.77;1.10;;;3.00;99.90;;;;;;5038040;28;20319;-89
2022/04/10 10:11:59;;;;;;;4.13;1.07;;;3.00;99.90;;;;;;5021775;28;20255;-90
2022/04/10 10:14:32;;;;;;;4.10;1.40;;;3.00;99.90;;;;;;5038257;28;20219;-91
2022/04/10 10:17:07;;;;;;;5.07;2.00;;;3.00;99.90;;;;;;5021939;28;20303;-90
2022/04/10 10:19:43;;;;;;;7.20;1.10;;;3.00;99.90;;;;;;5021432;28;20275;-90
2022/04/10 10:22:17;;;;;;;5.67;1.37;;;2.90;99.90;;;;;;5039219;28;20235;-92
2022/04/10 10:24:55;;;;;;;4.17;1.80;;;2.90;99.90;;;;;;5038427;28;20376;-91
2022/04/10 10:28:02;;;;;;;4.03;1.50;;;3.00;99.90;;;;;;5037727;28;20205;-91
2022/04/10 10:30:39;;;;;;;2.57;0.93;;;3.10;99.90;;;;;;5042090;28;20237;-91
2022/04/10 10:33:17;;;;;;;6.47;1.10;;;3.00;99.90;;;;;;5038433;28;20204;-92
2022/04/10 10:35:52;;;;;;;4.20;1.13;;;3.00;99.90;;;;;;5038090;28;20247;-92
2022/04/10 10:38:25;;;;;;;7.63;1.17;;;3.10;99.90;;;;;;5038629;28;20219;-91
2022/04/10 10:41:31;;;;;;;3.80;0.83;;;3.00;99.90;;;;;;5037109;28;20233;-91
2022/04/10 10:44:45;;;;;;;6.97;0.93;;;3.00;99.90;;;;;;5037611;28;20270;-91
2022/04/10 10:47:25;;;;;;;6.37;1.20;;;3.00;99.90;;;;;;5036538;28;20232;-91
2022/04/10 10:49:59;;;;;;;2.87;0.87;;;3.10;99.90;;;;;;5037961;28;20224;-91
2022/04/10 10:52:36;;;;;;;4.03;1.23;;;3.00;99.90;;;;;;5037553;28;20616;-92
2022/04/10 10:55:16;;;;;;;2.77;1.00;;;2.90;99.90;;;;;;5021619;28;20236;-92
2022/04/10 10:57:48;;;;;;;2.50;1.13;;;2.90;99.90;;;;;;5037327;28;20649;-92
2022/04/10 11:00:22;;;;;;;2.43;0.70;;;2.90;99.90;;;;;;5038593;28;20295;-92
2022/04/10 11:02:54;;;;;;;4.37;0.90;;;3.00;99.90;;;;;;5038355;28;20227;-91
2022/04/10 11:05:32;;;;;;;3.43;0.90;;;2.90;99.90;;;;;;5038832;28;20216;-91
2022/04/10 11:08:09;;;;;;;4.97;0.80;;;3.00;99.90;;;;;;5038962;28;20216;-92
2022/04/10 11:10:52;;;;;;;2.87;0.90;;;3.00;99.90;;;;;;5059691;28;20223;-91
2022/04/10 11:13:25;;;;;;;3.50;1.00;;;2.90;99.90;;;;;;5095254;28;20210;-91
2022/04/10 11:16:12;;;;;;;3.23;0.87;;;3.00;99.90;;;;;;5095991;28;20184;-93
2022/04/10 11:18:51;;;;;;;2.50;0.83;;;3.00;99.90;;;;;;5080727;28;20220;-92
2022/04/10 11:21:25;;;;;;;1.20;0.90;;;3.00;99.90;;;;;;5087823;28;20229;-92
2022/04/10 11:24:00;;;;;;;2.70;0.93;;;3.10;99.90;;;;;;5090088;28;20190;-91
2022/04/10 11:26:45;;;;;;;4.83;1.20;;;3.10;99.90;;;;;;5091813;28;20208;-88
2022/04/10 11:29:21;;;;;;;5.57;1.00;;;3.20;99.90;;;;;;5083768;28;20257;-91
2022/04/10 11:31:56;;;;;;;2.97;0.90;;;3.20;99.90;;;;;;5062535;28;20226;-91
2022/04/10 11:34:28;;;;;;;22.77;2.03;;;3.20;99.90;;;;;;5061698;28;20223;-90
2022/04/10 11:37:03;;;;;;;2.87;0.90;;;3.30;99.90;;;;;;5079242;28;20203;-89
2022/04/10 11:39:36;;;;;;;4.10;0.90;;;3.40;99.90;;;;;;5054288;28;20211;-89
2022/04/10 11:42:09;;;;;;;2.20;1.00;;;3.40;99.90;;;;;;5044344;28;20307;-90
2022/04/10 11:44:42;;;;;;;6.73;1.10;;;3.40;99.90;;;;;;5037350;28;20263;-90
2022/04/10 11:47:15;;;;;;;3.80;0.77;;;3.40;99.90;;;;;;5036675;28;20240;-90
2022/04/10 11:49:53;;;;;;;2.60;1.43;;;3.40;99.90;;;;;;5039777;28;20201;-89
2022/04/10 11:52:24;;;;;;;5.63;1.30;;;3.40;99.90;;;;;;5040849;28;20205;-90
2022/04/10 11:54:55;;;;;;;5.27;1.10;;;3.40;99.90;;;;;;5039938;28;20271;-91
2022/04/10 11:57:30;;;;;;;7.73;1.60;;;3.40;99.90;;;;;;5039961;28;20208;-90
2022/04/10 12:00:01;;;;;;;5.63;1.27;;;3.40;99.90;;;;;;5040315;28;20205;-91
2022/04/10 12:02:36;;;;;;;3.23;1.13;;;3.40;99.90;;;;;;5041235;28;20233;-92
2022/04/10 12:05:10;;;;;;;4.30;1.00;;;3.40;99.90;;;;;;5039819;28;20205;-90
2022/04/10 12:07:41;;;;;;;4.57;1.00;;;3.40;99.90;;;;;;5058883;23;20269;-91
2022/04/10 12:10:18;;;;;;;5.00;1.13;;;3.50;99.90;;;;;;5020703;28;20268;-88
2022/04/10 12:12:50;;;;;;;2.77;0.97;;;3.50;99.90;;;;;;5020289;28;20291;-89
2022/04/10 12:15:22;;;;;;;5.37;1.37;;;3.60;99.90;;;;;;5020681;28;20258;-89
2022/04/10 12:18:07;;;;;;;8.37;1.10;;;3.60;99.90;;;;;;5019571;28;20217;-88
2022/04/10 12:20:40;;;;;;;6.10;1.87;;;3.60;99.90;;;;;;5019869;28;20634;-88
2022/04/10 12:23:23;;;;;;;2.77;0.80;;;3.70;99.90;;;;;;5019729;28;20206;-89
2022/04/10 12:25:57;;;;;;;3.30;0.80;;;3.70;99.90;;;;;;5020066;28;20213;-90
2022/04/10 12:28:30;;;;;;;2.50;0.67;;;3.70;99.90;;;;;;5018158;28;20266;-89
2022/04/10 12:31:03;;;;;;;1.90;0.80;;;3.70;99.90;;;;;;5018642;28;20291;-88
2022/04/10 12:33:37;;;;;;;0.83;0.37;;;3.80;99.90;;;;;;5002811;28;20221;-90
2022/04/10 12:36:18;;;;;;;1.10;0.40;;;3.70;99.90;;;;;;5018960;28;20247;-88
2022/04/10 12:38:53;;;;;;;1.53;0.50;;;3.80;99.90;;;;;;5018158;28;20229;-89
2022/04/10 12:41:28;;;;;;;1.10;0.40;;;3.70;99.90;;;;;;5018418;28;20217;-89
2022/04/10 12:44:03;;;;;;;2.00;0.70;;;3.60;99.90;;;;;;5019837;28;20232;-89
2022/04/10 12:46:37;;;;;;;1.23;0.60;;;3.60;99.90;;;;;;5020473;28;20300;-89
2022/04/10 12:49:17;;;;;;;1.83;0.70;;;3.60;99.90;;;;;;5022137;28;20217;-87
2022/04/10 12:51:55;;;;;;;2.03;0.47;;;3.60;99.90;;;;;;5019757;28;20229;-89
2022/04/10 12:54:40;;;;;;;1.47;0.60;;;3.60;99.90;;;;;;5023208;28;20654;-89
2022/04/10 12:57:12;;;;;;;0.50;0.40;;;3.70;99.90;;;;;;5019579;28;20339;-90
2022/04/10 12:59:44;;;;;;;1.90;0.50;;;3.60;99.90;;;;;;5019488;28;20213;-88
2022/04/10 13:02:23;;;;;;;0.70;0.50;;;3.60;99.90;;;;;;5001524;28;20236;-89
2022/04/10 13:05:02;;;;;;;1.13;0.50;;;3.60;99.90;;;;;;5002164;28;20209;-89
2022/04/10 13:07:34;;;;;;;0.83;0.43;;;3.60;99.90;;;;;;5018430;28;20835;-89
2022/04/10 13:10:08;;;;;;;3.03;0.70;;;3.50;99.90;;;;;;5001795;28;20240;-89
2022/04/10 13:12:42;;;;;;;1.50;0.60;;;3.50;99.90;;;;;;5002127;28;20240;-89
2022/04/10 13:15:14;;;;;;;0.87;0.50;;;3.40;99.90;;;;;;5019321;28;20202;-91
2022/04/10 13:17:45;;;;;;;0.40;0.40;;;3.50;99.90;;;;;;5018401;28;20225;-89
2022/04/10 13:20:27;;;;;;;0.80;0.53;;;3.30;99.90;;;;;;5018945;28;20288;-90
2022/04/10 13:22:57;;;;;;;1.10;0.50;;;3.30;99.90;;;;;;5034345;28;20236;-90
2022/04/10 13:25:32;;;;;;;3.33;1.20;;;3.30;99.90;;;;;;5018577;28;20283;-90
2022/04/10 13:28:03;;;;;;;0.80;0.70;;;3.40;99.90;;;;;;5024641;28;20208;-89
2022/04/10 13:30:34;;;;;;;1.90;0.60;;;3.50;99.90;;;;;;5023628;28;20252;-89
2022/04/10 13:33:06;;;;;;;1.83;0.40;;;3.50;99.90;;;;;;5035193;28;20224;-88
2022/04/10 13:35:42;;;;;;;1.83;0.70;;;3.30;99.90;;;;;;5031396;28;20240;-90
2022/04/10 13:38:13;;;;;;;1.23;0.63;;;3.30;99.90;;;;;;5028890;28;20213;-90
2022/04/10 13:40:45;;;;;;;0.83;0.60;;;3.40;99.90;;;;;;5012608;28;20229;-90
2022/04/10 13:43:16;;;;;;;1.77;0.60;;;3.50;99.90;;;;;;5026252;28;20293;-90
2022/04/10 13:45:48;;;;;;;1.00;0.50;;;3.50;99.90;;;;;;5019335;28;20197;-89
2022/04/10 13:48:19;;;;;;;7.10;0.93;;;3.50;99.90;;;;;;5002905;28;20292;-88
2022/04/10 13:50:54;;;;;;;0.90;0.60;;;3.50;99.90;;;;;;5004325;28;20279;-89
2022/04/10 13:53:26;;;;;;;1.40;0.73;;;3.50;99.90;;;;;;5018906;28;20275;-91
2022/04/10 13:56:00;;;;;;;1.27;0.80;;;3.40;99.90;;;;;;5003017;28;20267;-91
2022/04/10 13:58:32;;;;;;;1.77;1.00;;;3.40;99.90;;;;;;5016802;28;20274;-90
2022/04/10 14:01:04;;;;;;;0.90;0.87;;;3.50;99.90;;;;;;5000469;28;20341;-89
2022/04/10 14:03:36;;;;;;;2.77;1.00;;;3.60;99.90;;;;;;5018967;28;20209;-89
2022/04/10 14:06:10;;;;;;;1.73;1.00;;;3.50;99.90;;;;;;5017766;28;20321;-90
2022/04/10 14:08:42;;;;;;;1.60;1.10;;;3.50;99.90;;;;;;5017161;28;20292;-91
2022/04/10 14:11:22;;;;;;;1.50;1.20;;;3.50;99.90;;;;;;5017136;28;20235;-90
2022/04/10 14:13:53;;;;;;;3.63;1.53;;;3.50;99.90;;;;;;5017696;28;20252;-89
2022/04/10 14:16:25;;;;;;;4.50;1.77;;;3.50;99.90;;;;;;5017183;28;20270;-90
2022/04/10 14:19:02;;;;;;;4.10;2.30;;;3.60;99.90;;;;;;5016669;28;20216;-91
2022/04/10 14:21:39;;;;;;;2.33;1.80;;;3.60;99.90;;;;;;5017924;28;20307;-92
2022/04/10 14:24:10;;;;;;;2.30;2.00;;;3.50;99.90;;;;;;5018557;28;20232;-91
2022/04/10 14:26:42;;;;;;;2.70;1.40;;;3.50;99.90;;;;;;5018972;28;20629;-90
2022/04/10 14:29:15;;;;;;;5.93;1.80;;;3.50;99.90;;;;;;5016459;28;20233;-88
2022/04/10 14:31:47;;;;;;;2.20;1.37;;;3.60;99.90;;;;;;5017041;28;20320;-91
2022/04/10 14:34:19;;;;;;;4.43;1.20;;;3.70;99.90;;;;;;5022294;28;20232;-89
2022/04/10 14:36:53;;;;;;;2.07;1.70;;;3.70;99.90;;;;;;5021012;28;20588;-90
2022/04/10 14:39:25;;;;;;;3.07;1.40;;;3.70;99.90;;;;;;5016525;28;20213;-90